Ashton, Idaho
Current Conditions -  °F | °C
As of 9:53 AM on Saturday 25 Oct 2014 (Local Time) from KRXE Reporting Station
Clear Clear  
Wind Chill: 40°   Ceiling: Unl
Heat Index: 44°   Visibility: 10mi
Dew Point: 31°   Wind: 7mph
Humidity: 60%   Direction: 70°ENE
Pressure: 30.06"   Gusts: NA
Location:  44.07°N, 111.45°W
Report Text: KRXE 251553Z AUTO 07006KT 10SM CLR 07/M01 A3006 RMK AO2 SLP174 T00671006
Loading
Personal Weather Stations






























Interactive Weather Map
Tropical Storm Tracking
New forecast layout! Learn more

10-Day Weather Forecast

Advertisements
Track Severe Weather on mobile